Time;durP1;ratioP1;P1;durP2;ratioP2;P2;SDS_P1;SDS_P2;PMS_P1;PMS_P2;Temp;Humidity;BMP_temperature;BMP_pressure;BME280_temperature;BME280_humidity;BME280_pressure;Samples;Min_cycle;Max_cycle;Signal;HPM_P1;HPM_P2
2023/04/08 00:00:13;;;;;;;;;9.50;8.50;;;;;12.77;54.42;101672.09;2096522;28;45170;-62
2023/04/08 00:01:13;;;;;;;;;11.00;10.00;;;;;12.75;54.24;101662.38;2105638;28;44826;-63
2023/04/08 00:02:14;;;;;;;;;11.50;10.25;;;;;12.74;54.44;101669.50;2105934;27;45259;-63
2023/04/08 00:03:15;;;;;;;;;10.00;10.00;;;;;12.73;54.25;101666.84;2105220;27;45178;-64
2023/04/08 00:04:15;;;;;;;;;11.25;11.00;;;;;12.72;54.28;101663.31;2105495;28;44896;-62
2023/04/08 00:05:15;;;;;;;;;11.50;9.00;;;;;12.71;54.26;101669.56;2097163;28;45090;-62
2023/04/08 00:06:16;;;;;;;;;13.75;9.75;;;;;12.70;54.45;101673.09;2103090;28;45032;-63
2023/04/08 00:07:16;;;;;;;;;10.50;8.75;;;;;12.70;54.39;101669.53;2095567;28;45032;-63
2023/04/08 00:08:16;;;;;;;;;9.50;9.50;;;;;12.68;54.23;101673.09;2096787;28;44948;-62
2023/04/08 00:09:17;;;;;;;;;10.50;9.50;;;;;12.66;54.32;101674.94;2092181;28;45185;-62
2023/04/08 00:10:17;;;;;;;;;11.00;10.50;;;;;12.66;54.36;101680.25;2095711;28;45107;-62
2023/04/08 00:11:18;;;;;;;;;9.40;8.20;;;;;12.65;54.36;101678.50;2098374;28;44829;-63
2023/04/08 00:12:18;;;;;;;;;8.75;8.75;;;;;12.63;54.44;101677.63;2100595;28;45175;-62
2023/04/08 00:13:19;;;;;;;;;9.00;9.00;;;;;12.64;54.45;101678.53;2105490;28;44833;-63
2023/04/08 00:14:19;;;;;;;;;11.00;10.00;;;;;12.63;54.28;101674.97;2103853;28;44944;-63
2023/04/08 00:15:19;;;;;;;;;9.50;9.50;;;;;12.62;54.46;101675.00;2096504;28;45276;-63
2023/04/08 00:16:20;;;;;;;;;9.00;8.25;;;;;12.59;54.45;101673.28;2096384;28;44857;-62
2023/04/08 00:17:20;;;;;;;;;10.25;10.25;;;;;12.59;54.38;101670.63;2105695;28;45469;-62
2023/04/08 00:18:20;;;;;;;;;9.25;9.00;;;;;12.58;54.62;101666.19;2105219;28;44880;-62
2023/04/08 00:19:21;;;;;;;;;9.00;9.00;;;;;12.58;54.47;101668.84;2100383;27;44916;-62
2023/04/08 00:20:23;;;;;;;;;10.50;9.75;;;;;12.59;54.45;101675.06;2105430;28;44871;-62
2023/04/08 00:21:24;;;;;;;;;6.00;5.75;;;;;12.58;54.31;101671.50;2105380;27;45117;-63
2023/04/08 00:22:24;;;;;;;;;8.75;8.75;;;;;12.58;54.38;101671.50;2108264;27;45063;-62
2023/04/08 00:23:25;;;;;;;;;8.25;7.25;;;;;12.56;54.51;101670.63;2103788;28;44883;-62
2023/04/08 00:24:25;;;;;;;;;11.00;11.00;;;;;12.56;54.53;101670.63;2095896;28;45244;-62
2023/04/08 00:25:25;;;;;;;;;8.50;7.25;;;;;12.55;54.46;101674.19;2103483;27;44786;-62
2023/04/08 00:26:26;;;;;;;;;11.75;10.75;;;;;12.53;54.54;101667.13;2097205;28;44850;-63
2023/04/08 00:27:26;;;;;;;;;10.50;10.00;;;;;12.52;54.61;101668.03;2096734;28;45022;-63
2023/04/08 00:28:26;;;;;;;;;7.25;7.25;;;;;12.52;54.67;101671.59;2079864;28;44892;-63
2023/04/08 00:29:27;;;;;;;;;10.75;9.25;;;;;12.52;54.62;101676.91;2087357;28;44789;-63
2023/04/08 00:30:28;;;;;;;;;8.00;8.00;;;;;12.50;54.73;101673.41;2100341;27;44984;-63
2023/04/08 00:31:29;;;;;;;;;5.80;5.80;;;;;12.49;54.62;101676.09;2097698;28;44852;-62
2023/04/08 00:32:29;;;;;;;;;11.50;8.75;;;;;12.48;54.92;101672.53;2096301;28;45778;-63
2023/04/08 00:33:30;;;;;;;;;8.50;8.00;;;;;12.48;54.68;101675.22;2105444;27;44869;-63
2023/04/08 00:34:30;;;;;;;;;11.50;8.50;;;;;12.47;54.56;101670.78;2096226;28;44923;-63
2023/04/08 00:35:30;;;;;;;;;8.00;8.00;;;;;12.47;54.61;101669.91;2096749;28;45017;-61
2023/04/08 00:36:31;;;;;;;;;11.00;8.00;;;;;12.46;54.51;101670.81;2105978;27;44848;-64
2023/04/08 00:37:31;;;;;;;;;10.50;8.75;;;;;12.47;54.76;101675.22;2105152;28;44826;-63
2023/04/08 00:38:31;;;;;;;;;8.00;8.00;;;;;12.47;54.63;101675.22;2105537;28;44853;-63
2023/04/08 00:39:32;;;;;;;;;9.00;9.00;;;;;12.47;54.63;101677.91;2102072;28;44857;-62
2023/04/08 00:40:33;;;;;;;;;12.50;12.50;;;;;12.46;54.61;101682.34;2096456;27;45012;-63
2023/04/08 00:41:34;;;;;;;;;8.60;8.60;;;;;12.45;54.70;101675.25;2105816;27;45091;-62
2023/04/08 00:42:35;;;;;;;;;10.00;8.40;;;;;12.44;54.62;101685.91;2097603;28;44908;-62
2023/04/08 00:43:35;;;;;;;;;10.25;9.00;;;;;12.42;54.70;101685.94;2102537;28;44884;-61
2023/04/08 00:44:36;;;;;;;;;10.50;9.00;;;;;12.42;54.70;101688.59;2104612;28;44929;-62
2023/04/08 00:45:36;;;;;;;;;12.50;11.50;;;;;12.40;54.59;101684.19;2099179;28;44919;-63
2023/04/08 00:46:39;;;;;;;;;11.50;10.00;;;;;12.40;54.81;101689.50;2105302;28;44952;-63
2023/04/08 00:47:39;;;;;;;;;13.00;9.80;;;;;12.37;54.87;101686.00;2105104;28;45008;-62
2023/04/08 00:48:40;;;;;;;;;11.00;9.50;;;;;12.37;54.80;101685.13;2103585;28;44937;-62
2023/04/08 00:49:41;;;;;;;;;10.25;10.00;;;;;12.36;54.87;101683.38;2096278;28;44909;-63
2023/04/08 00:50:42;;;;;;;;;9.20;9.20;;;;;12.35;54.88;101685.16;2096698;28;44891;-62
2023/04/08 00:51:43;;;;;;;;;11.20;9.60;;;;;12.35;54.91;101684.25;2096667;28;44908;-62
2023/04/08 00:52:43;;;;;;;;;9.25;9.25;;;;;12.35;54.78;101681.59;2096763;28;45074;-62
2023/04/08 00:53:44;;;;;;;;;13.00;8.00;;;;;12.35;54.77;101676.28;2105653;27;44936;-63
2023/04/08 00:54:44;;;;;;;;;9.00;7.00;;;;;12.35;54.78;101684.25;2113977;27;44897;-63
2023/04/08 00:55:45;;;;;;;;;9.25;9.25;;;;;12.34;54.80;101687.84;2081299;28;45276;-62
2023/04/08 00:56:45;;;;;;;;;9.50;9.50;;;;;12.33;54.74;101684.28;2078722;28;44966;-62
2023/04/08 00:57:47;;;;;;;;;10.25;7.50;;;;;12.32;54.87;101686.94;2096888;28;44887;-62
2023/04/08 00:58:47;;;;;;;;;7.50;7.50;;;;;12.33;54.76;101686.06;2101722;28;44924;-62
2023/04/08 00:59:48;;;;;;;;;9.00;9.00;;;;;12.32;54.73;101687.84;2105255;28;44932;-62
2023/04/08 01:00:59;;;;;;;;;10.00;9.00;;;;;12.31;54.76;101677.19;2105141;28;45028;-61
2023/04/08 01:02:13;;;;;;;;;10.20;8.00;;;;;12.29;54.75;101685.22;2105310;28;45183;-63
2023/04/08 01:03:51;;;;;;;;;9.60;9.60;;;;;12.29;54.86;101687.88;2105227;28;44949;-63
2023/04/08 01:05:11;;;;;;;;;10.40;10.00;;;;;12.28;54.76;101679.91;2104659;28;44881;-63
2023/04/08 01:06:21;;;;;;;;;9.60;7.80;;;;;12.27;54.78;101675.50;2104863;28;44919;-63
2023/04/08 01:07:34;;;;;;;;;6.60;5.40;;;;;12.26;54.82;101682.59;2111994;27;44794;-63
2023/04/08 01:08:38;;;;;;;;;8.60;8.60;;;;;12.25;54.63;101683.50;2107777;27;44870;-62
2023/04/08 01:09:45;;;;;;;;;9.80;8.80;;;;;12.24;54.83;101678.19;2105013;28;44952;-61
2023/04/08 01:10:52;;;;;;;;;12.80;9.60;;;;;12.24;54.81;101683.53;2105496;27;45093;-63
2023/04/08 01:11:53;;;;;;;;;10.40;9.60;;;;;12.22;55.06;101680.88;2104876;28;44889;-62
2023/04/08 01:12:56;;;;;;;;;9.00;8.60;;;;;12.22;55.08;101682.66;2104762;28;44817;-63
2023/04/08 01:13:57;;;;;;;;;10.80;8.80;;;;;12.22;54.98;101682.66;2105340;28;44961;-64
2023/04/08 01:15:02;;;;;;;;;9.20;9.20;;;;;12.21;54.91;101688.91;2104555;28;44882;-63
2023/04/08 01:16:02;;;;;;;;;11.20;10.00;;;;;12.20;54.99;101684.47;2104446;28;44937;-62
2023/04/08 01:17:04;;;;;;;;;8.00;8.00;;;;;12.18;55.02;101686.25;2095013;28;44821;-62
2023/04/08 01:18:11;;;;;;;;;10.00;7.20;;;;;12.17;55.43;101687.16;2095560;28;44974;-63
2023/04/08 01:19:25;;;;;;;;;13.00;11.20;;;;;12.15;54.93;101675.66;2104805;28;44838;-62
2023/04/08 01:20:28;;;;;;;;;9.60;9.20;;;;;12.16;55.00;101688.06;2096127;28;44889;-62
2023/04/08 01:21:29;;;;;;;;;9.80;8.20;;;;;12.15;55.06;101680.97;2095149;28;45082;-62
2023/04/08 01:23:09;;;;;;;;;12.50;10.75;;;;;12.13;55.06;101681.00;2104666;27;44893;-62
2023/04/08 01:24:25;;;;;;;;;12.00;11.60;;;;;12.11;55.04;101685.47;2071177;28;44795;-63
2023/04/08 01:25:38;;;;;;;;;11.00;9.60;;;;;12.12;55.16;101684.56;2067271;28;44918;-61
2023/04/08 01:26:39;;;;;;;;;12.60;12.60;;;;;12.11;55.03;101681.94;2070087;28;44983;-63
2023/04/08 01:27:42;;;;;;;;;10.20;7.60;;;;;12.12;55.26;101681.03;2070433;28;44948;-64
2023/04/08 01:28:42;;;;;;;;;6.80;6.80;;;;;12.10;55.20;101681.03;2070782;28;44989;-62
2023/04/08 01:29:44;;;;;;;;;11.50;9.00;;;;;12.08;55.25;101680.19;2069724;28;44724;-62
2023/04/08 01:30:46;;;;;;;;;13.20;11.60;;;;;12.07;55.05;101675.78;2069903;28;45034;-64
2023/04/08 01:31:47;;;;;;;;;8.00;6.00;;;;;12.06;55.06;101684.63;2070323;28;44870;-63
2023/04/08 01:32:50;;;;;;;;;8.80;8.80;;;;;12.05;55.32;101683.75;2062626;28;44913;-63
2023/04/08 01:33:52;;;;;;;;;11.60;10.00;;;;;12.05;55.09;101683.75;2062650;28;45071;-64
2023/04/08 01:34:55;;;;;;;;;9.60;9.60;;;;;12.05;55.08;101683.75;2070033;28;44799;-63
2023/04/08 01:35:57;;;;;;;;;18.60;16.20;;;;;12.07;55.21;101683.75;2069791;28;44899;-62
2023/04/08 01:36:59;;;;;;;;;12.60;10.80;;;;;12.06;55.29;101682.84;2070231;28;44951;-62
2023/04/08 01:38:01;;;;;;;;;12.40;9.00;;;;;12.05;55.27;101685.53;2062202;28;44964;-63
2023/04/08 01:39:05;;;;;;;;;7.00;6.40;;;;;12.04;55.35;101683.75;2070684;28;45162;-61
2023/04/08 01:40:07;;;;;;;;;10.40;9.60;;;;;12.04;55.49;101686.41;2070281;28;45005;-61
2023/04/08 01:41:10;;;;;;;;;10.80;9.40;;;;;12.01;55.31;101684.69;2062643;28;45055;-63
2023/04/08 01:42:12;;;;;;;;;10.80;10.00;;;;;12.01;55.22;101683.81;2067264;28;44923;-62
2023/04/08 01:43:15;;;;;;;;;9.60;9.00;;;;;11.98;55.31;101684.72;2078690;28;44922;-62
2023/04/08 01:44:17;;;;;;;;;10.20;8.00;;;;;12.00;55.38;101682.06;2064290;28;44972;-63
2023/04/08 01:45:18;;;;;;;;;9.25;9.25;;;;;12.00;55.45;101682.06;2064827;28;45124;-62
2023/04/08 01:46:20;;;;;;;;;9.40;9.40;;;;;11.98;55.43;101682.06;2074675;28;45149;-63
2023/04/08 01:47:21;;;;;;;;;9.00;8.40;;;;;11.97;55.36;101679.44;2070557;28;44814;-63
2023/04/08 01:48:23;;;;;;;;;13.20;12.20;;;;;11.95;55.49;101675.91;2070090;28;45025;-63
2023/04/08 01:49:24;;;;;;;;;12.60;12.20;;;;;11.95;55.35;101686.56;2073114;28;45067;-61
2023/04/08 01:50:27;;;;;;;;;11.20;10.60;;;;;11.94;55.58;101679.44;2073715;28;44874;-63
2023/04/08 01:51:30;;;;;;;;;11.00;10.80;;;;;11.93;55.62;101686.53;2076617;28;45061;-62
2023/04/08 01:52:33;;;;;;;;;11.80;11.80;;;;;11.93;55.43;101686.53;2072143;28;44951;-64
2023/04/08 01:53:34;;;;;;;;;10.40;9.40;;;;;11.93;55.47;101680.34;2074554;28;44985;-62
2023/04/08 01:54:35;;;;;;;;;8.75;8.75;;;;;11.93;55.52;101683.88;2075632;28;44927;-63
2023/04/08 01:55:37;;;;;;;;;10.00;8.75;;;;;11.93;55.44;101677.69;2070757;28;45113;-62
2023/04/08 01:56:40;;;;;;;;;12.00;9.80;;;;;11.93;55.54;101683.00;2071981;28;44902;-63
2023/04/08 01:57:46;;;;;;;;;11.80;9.80;;;;;11.92;55.73;101682.13;2074819;28;44950;-62
2023/04/08 01:58:51;;;;;;;;;8.40;8.40;;;;;11.90;55.51;101678.63;2071948;28;44856;-62
2023/04/08 01:59:55;;;;;;;;;12.80;11.40;;;;;11.88;55.48;101685.72;2076449;28;45212;-61
2023/04/08 02:00:57;;;;;;;;;11.40;11.40;;;;;11.89;55.61;101683.94;2085130;27;45392;-62
2023/04/08 02:02:00;;;;;;;;;10.40;10.00;;;;;11.87;55.53;101676.00;2088061;28;46727;-63
2023/04/08 02:03:04;;;;;;;;;11.20;11.20;;;;;11.87;55.63;101686.63;2087698;28;44951;-61
2023/04/08 02:04:05;;;;;;;;;11.60;10.00;;;;;11.86;55.86;101684.00;2106049;27;45114;-63
2023/04/08 02:05:06;;;;;;;;;10.25;10.25;;;;;11.85;55.81;101687.56;2102293;27;44883;-62
2023/04/08 02:06:06;;;;;;;;;10.00;9.75;;;;;11.84;55.82;101683.13;2104465;27;45018;-61
2023/04/08 02:07:07;;;;;;;;;12.00;11.00;;;;;11.84;55.84;101680.47;2106861;27;44860;-62
2023/04/08 02:08:07;;;;;;;;;9.00;9.00;;;;;11.82;55.76;101675.19;2107731;27;45035;-61
2023/04/08 02:09:07;;;;;;;;;12.75;11.00;;;;;11.82;55.84;101679.63;2105833;27;45146;-62
2023/04/08 02:10:08;;;;;;;;;11.75;11.75;;;;;11.81;55.61;101680.50;2105055;27;45408;-63
2023/04/08 02:11:09;;;;;;;;;9.75;9.75;;;;;11.79;55.88;101683.16;2108750;27;44991;-62
2023/04/08 02:12:10;;;;;;;;;19.00;13.25;;;;;11.79;55.80;101688.50;2104982;27;44972;-63
2023/04/08 02:13:10;;;;;;;;;10.25;9.00;;;;;11.80;55.73;101687.59;2102544;27;44955;-63
2023/04/08 02:14:10;;;;;;;;;10.75;10.75;;;;;11.79;55.77;101675.19;2110147;27;44820;-61
2023/04/08 02:15:12;;;;;;;;;14.25;13.75;;;;;11.81;55.72;101683.16;2105786;27;44870;-62
2023/04/08 02:16:38;;;;;;;;;15.60;12.80;;;;;11.77;55.76;101672.53;2106001;27;44853;-62
2023/04/08 02:17:42;;;;;;;;;10.80;9.60;;;;;11.78;55.94;101676.94;2096398;28;45226;-62
2023/04/08 02:18:52;;;;;;;;;11.60;10.40;;;;;11.77;55.95;101684.94;2103035;27;44947;-63
2023/04/08 02:20:04;;;;;;;;;13.00;11.60;;;;;11.76;55.94;101678.75;2105122;27;44898;-63
2023/04/08 02:21:14;;;;;;;;;10.00;8.00;;;;;11.75;55.68;101679.63;2108214;27;44845;-63
2023/04/08 02:22:28;;;;;;;;;14.80;13.60;;;;;11.74;56.07;101677.00;2105638;27;44842;-62
2023/04/08 02:23:33;;;;;;;;;8.00;8.00;;;;;11.76;55.95;101680.53;2108708;27;44938;-63
2023/04/08 02:24:35;;;;;;;;;10.80;10.40;;;;;11.73;55.88;101677.91;2096246;28;44904;-62
2023/04/08 02:25:39;;;;;;;;;10.80;9.60;;;;;11.73;55.84;101675.25;2102891;27;45018;-62
2023/04/08 02:26:42;;;;;;;;;12.60;11.00;;;;;11.72;55.87;101676.16;2102420;27;44777;-61
2023/04/08 02:27:45;;;;;;;;;13.40;10.40;;;;;11.70;55.84;101678.81;2104556;27;45135;-63
2023/04/08 02:28:48;;;;;;;;;9.60;9.60;;;;;11.68;55.98;101672.63;2108980;27;44811;-62
2023/04/08 02:29:52;;;;;;;;;9.40;9.40;;;;;11.67;55.96;101678.84;2104012;27;45284;-63
2023/04/08 02:30:53;;;;;;;;;13.20;11.00;;;;;11.67;55.91;101670.84;2104130;27;44971;-62
2023/04/08 02:31:55;;;;;;;;;9.80;9.00;;;;;11.67;55.91;101675.28;2105404;27;44952;-62
2023/04/08 02:32:57;;;;;;;;;11.20;10.60;;;;;11.65;56.22;101680.63;2105904;27;44904;-63
2023/04/08 02:33:58;;;;;;;;;13.20;12.00;;;;;11.66;56.07;101682.38;2100032;27;44885;-63
2023/04/08 02:35:00;;;;;;;;;11.20;10.20;;;;;11.64;55.84;101676.22;2099880;27;45071;-63
2023/04/08 02:36:01;;;;;;;;;11.20;8.80;;;;;11.64;55.93;101678.00;2105214;27;44785;-63
2023/04/08 02:37:02;;;;;;;;;12.00;10.60;;;;;11.63;55.73;101684.22;2103441;27;45002;-62
2023/04/08 02:38:02;;;;;;;;;11.00;11.00;;;;;11.62;55.96;101682.44;2100278;27;44843;-63
2023/04/08 02:39:03;;;;;;;;;10.00;9.00;;;;;11.61;55.92;101678.03;2100086;27;44892;-63
2023/04/08 02:40:03;;;;;;;;;13.00;10.75;;;;;11.61;56.09;101681.56;2107862;27;45042;-62
2023/04/08 02:41:04;;;;;;;;;11.50;10.50;;;;;11.61;56.14;101689.53;2108461;27;45051;-62
2023/04/08 02:42:04;;;;;;;;;10.75;10.75;;;;;11.60;56.24;101685.13;2104142;27;45317;-62
2023/04/08 02:43:05;;;;;;;;;10.75;10.00;;;;;11.61;56.01;101684.22;2103164;28;45152;-62
2023/04/08 02:44:05;;;;;;;;;8.75;8.75;;;;;11.62;56.11;101682.44;2103397;28;44835;-63
2023/04/08 02:45:06;;;;;;;;;14.00;10.25;;;;;11.60;55.90;101682.47;2102074;28;44860;-62
2023/04/08 02:46:08;;;;;;;;;11.00;9.80;;;;;11.59;55.86;101686.03;2098376;28;45000;-62
2023/04/08 02:47:08;;;;;;;;;10.60;10.60;;;;;11.58;55.92;101683.38;2097421;28;44807;-62
2023/04/08 02:48:09;;;;;;;;;12.00;11.00;;;;;11.57;56.15;101674.53;2092820;28;44993;-64
2023/04/08 02:49:09;;;;;;;;;11.00;11.00;;;;;11.56;56.14;101691.38;2095836;28;44845;-63
2023/04/08 02:50:10;;;;;;;;;11.25;11.25;;;;;11.54;56.03;101684.28;2100881;28;44918;-63
2023/04/08 02:51:10;;;;;;;;;10.25;10.25;;;;;11.52;56.23;101684.31;2104227;28;44937;-63
2023/04/08 02:52:11;;;;;;;;;11.00;10.75;;;;;11.50;56.17;101680.81;2096003;28;44965;-62
2023/04/08 02:53:11;;;;;;;;;10.25;8.00;;;;;11.48;56.14;101680.81;2090364;28;44973;-64
2023/04/08 02:54:11;;;;;;;;;16.50;14.00;;;;;11.49;56.17;101679.91;2087822;28;45015;-63
2023/04/08 02:55:12;;;;;;;;;12.00;12.00;;;;;11.47;56.29;101688.81;2093514;28;45288;-62
2023/04/08 02:56:12;;;;;;;;;10.25;10.00;;;;;11.45;56.51;101686.16;2090656;28;45043;-63
2023/04/08 02:57:12;;;;;;;;;10.75;10.50;;;;;11.44;56.52;101680.88;2086335;28;45263;-62
2023/04/08 02:58:13;;;;;;;;;13.00;12.75;;;;;11.43;56.39;101687.06;2086317;28;45142;-62
2023/04/08 02:59:13;;;;;;;;;10.25;9.75;;;;;11.41;56.42;101684.41;2085440;28;45485;-63
2023/04/08 03:00:14;;;;;;;;;10.50;10.00;;;;;11.40;56.41;101685.31;2086561;28;44800;-63
2023/04/08 03:01:15;;;;;;;;;12.80;12.80;;;;;11.39;56.58;101683.56;2086202;28;44944;-61
2023/04/08 03:02:16;;;;;;;;;14.00;11.25;;;;;11.39;56.71;101680.91;2086483;28;44906;-62
2023/04/08 03:03:16;;;;;;;;;10.20;10.20;;;;;11.38;56.61;101687.13;2086728;28;45032;-62
2023/04/08 03:04:16;;;;;;;;;12.00;11.50;;;;;11.38;56.73;101691.53;2085689;28;44984;-61
2023/04/08 03:05:17;;;;;;;;;15.75;13.50;;;;;11.37;56.48;101684.47;2078604;28;44952;-62
2023/04/08 03:06:17;;;;;;;;;13.75;11.50;;;;;11.37;56.68;101687.13;2077598;28;45074;-62
2023/04/08 03:07:17;;;;;;;;;16.25;14.50;;;;;11.36;56.65;101691.56;2087095;28;44941;-63
2023/04/08 03:08:18;;;;;;;;;14.25;12.75;;;;;11.37;56.51;101695.09;2088228;28;44974;-64
2023/04/08 03:09:19;;;;;;;;;13.25;13.25;;;;;11.36;56.75;101693.34;2080069;28;44838;-62
2023/04/08 03:10:19;;;;;;;;;13.75;11.50;;;;;11.35;56.81;101692.47;2079961;28;44892;-62
2023/04/08 03:11:20;;;;;;;;;11.75;11.75;;;;;11.35;56.64;101695.13;2087745;28;45067;-62
2023/04/08 03:12:21;;;;;;;;;14.60;11.20;;;;;11.33;56.66;101693.38;2088295;28;44962;-62
2023/04/08 03:13:21;;;;;;;;;13.40;11.60;;;;;11.34;56.73;101695.13;2087346;28;44917;-62
2023/04/08 03:14:22;;;;;;;;;11.25;10.00;;;;;11.33;56.57;101696.03;2088066;28;44899;-62
2023/04/08 03:15:22;;;;;;;;;14.00;11.25;;;;;11.33;56.68;101693.38;2087339;28;44794;-66
2023/04/08 03:16:22;;;;;;;;;11.50;10.00;;;;;11.32;56.52;101700.47;2088080;28;44965;-62
2023/04/08 03:17:23;;;;;;;;;10.25;9.50;;;;;11.31;56.71;101695.19;2096083;28;44802;-62
2023/04/08 03:18:23;;;;;;;;;13.50;12.00;;;;;11.30;56.71;101694.25;2095971;28;45408;-62
2023/04/08 03:19:24;;;;;;;;;14.25;12.00;;;;;11.30;56.78;101690.72;2088058;28;44977;-62
2023/04/08 03:20:24;;;;;;;;;13.00;12.25;;;;;11.31;56.96;101693.41;2078040;28;45185;-62
2023/04/08 03:21:25;;;;;;;;;13.75;13.75;;;;;11.30;56.64;101686.28;2079754;28;45107;-63
2023/04/08 03:22:26;;;;;;;;;10.40;10.40;;;;;11.30;56.62;101682.75;2087003;28;44804;-62
2023/04/08 03:23:26;;;;;;;;;13.50;12.00;;;;;11.31;56.88;101681.88;2095207;28;44837;-63
2023/04/08 03:24:26;;;;;;;;;13.50;12.00;;;;;11.31;56.64;101684.53;2096256;28;44916;-64
2023/04/08 03:25:28;;;;;;;;;14.75;14.50;;;;;11.31;56.63;101681.88;2087954;28;44810;-63
2023/04/08 03:26:28;;;;;;;;;12.00;11.60;;;;;11.31;56.85;101684.53;2087429;28;44941;-63
2023/04/08 03:27:28;;;;;;;;;14.50;9.50;;;;;11.29;57.06;101688.97;2087865;28;45323;-63
2023/04/08 03:28:29;;;;;;;;;15.75;15.75;;;;;11.29;56.52;101683.66;2089002;28;44948;-64
2023/04/08 03:29:29;;;;;;;;;11.00;11.00;;;;;11.27;56.94;101681.00;2097622;28;44885;-62
2023/04/08 03:30:30;;;;;;;;;9.00;9.00;;;;;11.27;56.62;101683.66;2102473;27;44880;-63
2023/04/08 03:31:30;;;;;;;;;15.50;14.00;;;;;11.26;56.79;101684.56;2105828;28;44869;-64
2023/04/08 03:32:31;;;;;;;;;14.75;13.25;;;;;11.28;57.07;101681.88;2110553;27;44842;-64
2023/04/08 03:33:32;;;;;;;;;13.25;13.25;;;;;11.29;56.71;101688.97;2108123;27;44814;-62
2023/04/08 03:34:35;;;;;;;;;16.25;12.50;;;;;11.28;56.62;101685.44;2111699;27;45543;-62
2023/04/08 03:35:36;;;;;;;;;14.80;13.40;;;;;11.28;56.73;101681.88;2112404;27;45050;-62
2023/04/08 03:36:36;;;;;;;;;14.25;13.25;;;;;11.27;56.80;101686.31;2104438;28;44935;-64
2023/04/08 03:37:37;;;;;;;;;10.50;9.25;;;;;11.26;57.14;101679.25;2101832;28;44924;-63
2023/04/08 03:38:37;;;;;;;;;11.50;11.50;;;;;11.28;56.79;101681.88;2105558;27;44854;-63
2023/04/08 03:39:37;;;;;;;;;12.00;9.50;;;;;11.26;56.70;101683.69;2100960;27;45080;-63
2023/04/08 03:40:38;;;;;;;;;12.25;10.50;;;;;11.23;56.76;101684.59;2104974;27;44845;-64
2023/04/08 03:41:38;;;;;;;;;12.75;10.75;;;;;11.24;56.70;101688.13;2104642;27;44853;-62
2023/04/08 03:42:38;;;;;;;;;10.25;10.25;;;;;11.23;56.57;101678.41;2096526;28;45023;-62
2023/04/08 03:43:39;;;;;;;;;10.75;10.75;;;;;11.22;56.60;101676.66;2103767;27;45027;-62
2023/04/08 03:44:39;;;;;;;;;12.00;10.75;;;;;11.22;56.79;101684.63;2108368;27;44848;-62
2023/04/08 03:45:40;;;;;;;;;14.75;12.25;;;;;11.22;56.71;101684.63;2104793;27;44960;-63
2023/04/08 03:46:40;;;;;;;;;12.00;12.00;;;;;11.20;56.73;101684.63;2109452;27;44890;-63
2023/04/08 03:47:40;;;;;;;;;13.00;12.00;;;;;11.19;56.81;101681.09;2102185;27;44841;-62
2023/04/08 03:48:41;;;;;;;;;13.00;11.75;;;;;11.19;56.74;101682.88;2105678;27;44779;-63
2023/04/08 03:49:41;;;;;;;;;12.25;12.25;;;;;11.19;56.74;101685.53;2094992;28;45042;-62
2023/04/08 03:50:41;;;;;;;;;15.00;14.00;;;;;11.19;56.77;101683.75;2096770;28;44936;-63
2023/04/08 03:51:42;;;;;;;;;11.25;9.75;;;;;11.19;56.91;101685.53;2104728;27;45292;-63
2023/04/08 03:52:42;;;;;;;;;14.25;13.50;;;;;11.18;56.97;101687.31;2105311;27;44955;-63
2023/04/08 03:53:42;;;;;;;;;12.25;11.75;;;;;11.18;56.85;101684.66;2105927;28;46004;-63
2023/04/08 03:54:42;;;;;;;;;11.50;10.00;;;;;11.18;56.94;101683.78;2100925;28;45026;-61
2023/04/08 03:55:43;;;;;;;;;13.25;12.00;;;;;11.18;56.63;101683.78;2105548;28;44907;-63
2023/04/08 03:56:43;;;;;;;;;10.25;9.75;;;;;11.18;56.81;101691.75;2113692;27;44891;-62
2023/04/08 03:57:44;;;;;;;;;14.50;11.75;;;;;11.17;56.65;101684.63;2110287;27;44898;-62
2023/04/08 03:58:44;;;;;;;;;18.40;16.20;;;;;11.15;56.73;101695.28;2106101;27;44923;-63
2023/04/08 03:59:45;;;;;;;;;11.00;9.25;;;;;11.15;56.72;101697.94;2111411;27;44989;-62
2023/04/08 04:00:45;;;;;;;;;14.00;12.00;;;;;11.15;56.93;101694.41;2102864;28;44962;-62
2023/04/08 04:01:46;;;;;;;;;15.50;11.00;;;;;11.13;56.83;101682.91;2096853;28;44920;-62
2023/04/08 04:02:46;;;;;;;;;15.00;15.00;;;;;11.12;56.96;101692.66;2105905;27;44827;-62
2023/04/08 04:03:47;;;;;;;;;11.75;10.75;;;;;11.13;56.97;101691.75;2102165;28;45077;-63
2023/04/08 04:04:47;;;;;;;;;15.75;12.75;;;;;11.13;56.61;101690.88;2105999;27;44968;-63
2023/04/08 04:05:47;;;;;;;;;16.50;15.00;;;;;11.12;56.81;101691.78;2105384;27;44937;-62
2023/04/08 04:06:48;;;;;;;;;16.25;15.75;;;;;11.13;56.93;101688.22;2105403;28;45038;-62
2023/04/08 04:07:48;;;;;;;;;10.00;10.00;;;;;11.12;56.89;101691.78;2105925;27;44770;-64
2023/04/08 04:08:49;;;;;;;;;13.75;13.75;;;;;11.10;56.57;101691.78;2106305;27;44774;-62
2023/04/08 04:09:52;;;;;;;;;18.25;13.50;;;;;11.11;56.67;101692.69;2106298;27;44821;-63
2023/04/08 04:10:53;;;;;;;;;17.20;16.00;;;;;11.10;56.83;101691.78;2105981;27;44988;-63
2023/04/08 04:11:53;;;;;;;;;14.25;13.75;;;;;11.09;56.93;101694.47;2104959;28;44853;-62
2023/04/08 04:12:53;;;;;;;;;15.50;15.50;;;;;11.08;56.88;101693.59;2112977;27;44832;-63
2023/04/08 04:13:54;;;;;;;;;19.75;18.75;;;;;11.08;56.74;101700.69;2112168;27;44844;-63
2023/04/08 04:14:54;;;;;;;;;11.00;9.00;;;;;11.06;56.65;101695.38;2113805;27;44829;-61
2023/04/08 04:15:56;;;;;;;;;14.50;14.50;;;;;11.05;56.74;101695.38;2104993;27;45269;-63
2023/04/08 04:16:56;;;;;;;;;14.00;13.80;;;;;11.05;56.57;101693.63;2099321;27;44888;-63
2023/04/08 04:17:56;;;;;;;;;13.25;13.25;;;;;11.04;56.80;101694.47;2113229;27;44885;-62
2023/04/08 04:18:57;;;;;;;;;14.00;14.00;;;;;11.04;56.87;101701.56;2105416;27;44880;-63
2023/04/08 04:19:57;;;;;;;;;14.75;12.25;;;;;11.02;56.83;101690.97;2096722;28;44889;-62
2023/04/08 04:20:57;;;;;;;;;16.75;14.75;;;;;11.02;56.56;101700.72;2107882;27;45205;-62
2023/04/08 04:21:58;;;;;;;;;14.50;11.75;;;;;10.99;56.67;101696.31;2106189;27;44856;-63
2023/04/08 04:22:58;;;;;;;;;13.75;9.25;;;;;10.98;56.46;101697.22;2104114;28;44861;-62
2023/04/08 04:23:58;;;;;;;;;14.50;14.25;;;;;10.97;56.83;101692.78;2099679;28;45122;-62
2023/04/08 04:24:59;;;;;;;;;13.25;13.00;;;;;10.96;56.75;101695.47;2105427;28;45348;-64
2023/04/08 04:25:59;;;;;;;;;13.75;13.75;;;;;10.95;56.64;101691.94;2099567;27;44982;-63
2023/04/08 04:26:59;;;;;;;;;12.25;12.25;;;;;10.95;56.63;101701.66;2100154;27;44899;-62
2023/04/08 04:28:01;;;;;;;;;17.25;15.25;;;;;10.93;56.84;101695.50;2098802;28;44824;-62
2023/04/08 04:29:01;;;;;;;;;15.20;12.20;;;;;10.92;56.52;101699.88;2102947;27;45074;-63
2023/04/08 04:30:03;;;;;;;;;12.00;12.00;;;;;10.91;56.56;101698.13;2106221;27;44850;-63
2023/04/08 04:31:04;;;;;;;;;15.80;14.40;;;;;10.91;57.01;101700.78;2098375;28;44812;-62
2023/04/08 04:32:05;;;;;;;;;13.50;12.25;;;;;10.90;56.65;101699.91;2101460;27;45039;-63
2023/04/08 04:33:06;;;;;;;;;15.60;15.60;;;;;10.89;56.67;101700.81;2098561;28;44817;-62
2023/04/08 04:34:06;;;;;;;;;15.00;11.00;;;;;10.88;56.73;101701.69;2104412;27;45273;-63
2023/04/08 04:35:08;;;;;;;;;11.00;11.00;;;;;10.87;56.58;101699.94;2104915;27;44810;-62
2023/04/08 04:36:08;;;;;;;;;12.80;12.00;;;;;10.87;56.59;101699.94;2105343;28;44948;-63
2023/04/08 04:37:08;;;;;;;;;9.50;9.00;;;;;10.87;56.84;101699.94;2078890;28;45002;-62
2023/04/08 04:38:11;;;;;;;;;14.25;13.75;;;;;10.87;56.57;101699.06;2070540;28;44929;-62
2023/04/08 04:39:11;;;;;;;;;14.00;12.20;;;;;10.84;56.49;101691.13;2089486;28;44900;-62
2023/04/08 04:40:12;;;;;;;;;16.50;16.00;;;;;10.83;56.73;101697.31;2105473;27;45047;-63
2023/04/08 04:41:12;;;;;;;;;17.00;16.75;;;;;10.83;56.52;101697.31;2100833;28;45019;-62
2023/04/08 04:42:12;;;;;;;;;12.50;12.00;;;;;10.81;56.82;101702.66;2104123;27;44923;-63
2023/04/08 04:43:13;;;;;;;;;10.25;10.25;;;;;10.82;56.68;101700.88;2093318;28;44930;-63